sensor_id;sensor_type;location;lat;lon;timestamp;pressure;altitude;pressure_sealevel;temperature;humidity
58245;BME280;44550;43.864;25.986;2023-04-29T00:03:52;101371.84;;;8.88;74.48
58245;BME280;44550;43.864;25.986;2023-04-29T00:07:53;101374.47;;;8.89;73.59
58245;BME280;44550;43.864;25.986;2023-04-29T00:11:57;101373.44;;;8.83;73.97
58245;BME280;44550;43.864;25.986;2023-04-29T00:16:06;101374.16;;;8.77;74.48
58245;BME280;44550;43.864;25.986;2023-04-29T00:20:13;101373.34;;;8.78;74.95
58245;BME280;44550;43.864;25.986;2023-04-29T00:24:15;101373.59;;;8.89;75.02
58245;BME280;44550;43.864;25.986;2023-04-29T00:28:23;101370.19;;;8.91;75.05
58245;BME280;44550;43.864;25.986;2023-04-29T00:32:24;101364.09;;;8.91;74.76
58245;BME280;44550;43.864;25.986;2023-04-29T00:36:31;101367.44;;;8.87;74.71
58245;BME280;44550;43.864;25.986;2023-04-29T00:40:38;101360.22;;;8.75;75.34
58245;BME280;44550;43.864;25.986;2023-04-29T00:44:44;101362.59;;;8.64;75.87
58245;BME280;44550;43.864;25.986;2023-04-29T00:48:48;101363.13;;;8.51;75.83
58245;BME280;44550;43.864;25.986;2023-04-29T00:52:54;101338.31;;;8.34;75.02
58245;BME280;44550;43.864;25.986;2023-04-29T00:57:05;101350.19;;;8.56;74.61
58245;BME280;44550;43.864;25.986;2023-04-29T01:01:16;101346.66;;;8.54;74.74
58245;BME280;44550;43.864;25.986;2023-04-29T01:05:27;101347.00;;;8.67;74.37
58245;BME280;44550;43.864;25.986;2023-04-29T01:09:37;101350.13;;;8.89;73.71
58245;BME280;44550;43.864;25.986;2023-04-29T01:13:49;101342.91;;;9.15;73.09
58245;BME280;44550;43.864;25.986;2023-04-29T01:17:50;101345.19;;;9.40;72.10
58245;BME280;44550;43.864;25.986;2023-04-29T01:26:22;101339.84;;;9.77;69.77
58245;BME280;44550;43.864;25.986;2023-04-29T01:30:31;101348.94;;;9.97;68.84
58245;BME280;44550;43.864;25.986;2023-04-29T01:34:37;101343.78;;;10.02;68.90
58245;BME280;44550;43.864;25.986;2023-04-29T01:38:46;101336.38;;;10.23;68.09
58245;BME280;44550;43.864;25.986;2023-04-29T01:42:59;101338.69;;;10.09;67.99
58245;BME280;44550;43.864;25.986;2023-04-29T01:47:04;101336.81;;;10.01;69.04
58245;BME280;44550;43.864;25.986;2023-04-29T01:51:12;101343.66;;;9.94;69.56
58245;BME280;44550;43.864;25.986;2023-04-29T01:55:22;101339.78;;;9.74;69.85
58245;BME280;44550;43.864;25.986;2023-04-29T01:59:26;101336.78;;;9.54;70.17
58245;BME280;44550;43.864;25.986;2023-04-29T02:03:32;101335.72;;;9.46;70.48
58245;BME280;44550;43.864;25.986;2023-04-29T02:07:40;101333.78;;;9.37;70.77
58245;BME280;44550;43.864;25.986;2023-04-29T02:11:46;101335.66;;;9.43;71.21
58245;BME280;44550;43.864;25.986;2023-04-29T02:16:09;101331.81;;;9.27;71.91
58245;BME280;44550;43.864;25.986;2023-04-29T02:20:11;101333.81;;;8.98;72.65
58245;BME280;44550;43.864;25.986;2023-04-29T02:24:16;101332.31;;;9.09;73.37
58245;BME280;44550;43.864;25.986;2023-04-29T02:28:19;101325.41;;;9.11;73.21
58245;BME280;44550;43.864;25.986;2023-04-29T02:32:23;101328.31;;;8.87;73.49
58245;BME280;44550;43.864;25.986;2023-04-29T02:36:24;101334.09;;;8.72;74.06
58245;BME280;44550;43.864;25.986;2023-04-29T02:40:29;101331.06;;;8.55;74.42
58245;BME280;44550;43.864;25.986;2023-04-29T02:44:34;101326.91;;;8.29;75.04
58245;BME280;44550;43.864;25.986;2023-04-29T02:48:47;101326.81;;;7.92;77.07
58245;BME280;44550;43.864;25.986;2023-04-29T02:52:49;101328.50;;;7.59;78.73
58245;BME280;44550;43.864;25.986;2023-04-29T02:56:55;101330.81;;;7.49;79.10
58245;BME280;44550;43.864;25.986;2023-04-29T03:01:02;101326.38;;;7.45;79.01
58245;BME280;44550;43.864;25.986;2023-04-29T03:05:14;101323.44;;;7.35;80.06
58245;BME280;44550;43.864;25.986;2023-04-29T03:09:19;101311.19;;;7.30;79.49
58245;BME280;44550;43.864;25.986;2023-04-29T03:13:21;101322.06;;;7.17;80.50
58245;BME280;44550;43.864;25.986;2023-04-29T03:17:23;101330.72;;;7.16;80.46
58245;BME280;44550;43.864;25.986;2023-04-29T03:21:27;101331.59;;;7.17;79.61
58245;BME280;44550;43.864;25.986;2023-04-29T03:25:28;101331.56;;;7.15;79.33
58245;BME280;44550;43.864;25.986;2023-04-29T03:29:27;101340.59;;;6.99;78.03
58245;BME280;44550;43.864;25.986;2023-04-29T03:33:28;101342.06;;;6.91;78.92
58245;BME280;44550;43.864;25.986;2023-04-29T03:37:35;101349.09;;;6.94;78.36
58245;BME280;44550;43.864;25.986;2023-04-29T03:41:37;101348.34;;;6.98;77.94
58245;BME280;44550;43.864;25.986;2023-04-29T03:45:51;101349.38;;;7.03;76.76
58245;BME280;44550;43.864;25.986;2023-04-29T03:49:53;101351.91;;;7.01;77.04
58245;BME280;44550;43.864;25.986;2023-04-29T03:54:17;101357.50;;;7.14;77.65
58245;BME280;44550;43.864;25.986;2023-04-29T03:58:39;101356.72;;;7.75;75.87
58245;BME280;44550;43.864;25.986;2023-04-29T04:03:27;101352.41;;;8.75;71.76
58245;BME280;44550;43.864;25.986;2023-04-29T04:07:54;101357.78;;;10.05;66.00
58245;BME280;44550;43.864;25.986;2023-04-29T04:12:08;101354.91;;;11.49;61.58
58245;BME280;44550;43.864;25.986;2023-04-29T04:21:08;101358.25;;;13.16;55.83
58245;BME280;44550;43.864;25.986;2023-04-29T04:25:43;101352.34;;;13.48;53.81
58245;BME280;44550;43.864;25.986;2023-04-29T04:29:51;101351.59;;;13.87;53.26
58245;BME280;44550;43.864;25.986;2023-04-29T04:34:05;101356.06;;;14.26;50.97
58245;BME280;44550;43.864;25.986;2023-04-29T04:38:05;101349.06;;;14.38;49.96
58245;BME280;44550;43.864;25.986;2023-04-29T04:42:08;101356.13;;;14.78;47.79
58245;BME280;44550;43.864;25.986;2023-04-29T04:46:12;101348.22;;;14.86;46.67
58245;BME280;44550;43.864;25.986;2023-04-29T04:50:19;101354.38;;;14.94;46.36
58245;BME280;44550;43.864;25.986;2023-04-29T04:54:23;101351.72;;;14.56;46.58
58245;BME280;44550;43.864;25.986;2023-04-29T04:58:34;101367.34;;;13.75;48.82
58245;BME280;44550;43.864;25.986;2023-04-29T05:02:37;101364.84;;;14.28;48.34
58245;BME280;44550;43.864;25.986;2023-04-29T05:06:38;101358.69;;;14.26;47.49
58245;BME280;44550;43.864;25.986;2023-04-29T05:10:39;101360.44;;;14.23;48.39
58245;BME280;44550;43.864;25.986;2023-04-29T05:14:44;101359.66;;;14.84;46.70
58245;BME280;44550;43.864;25.986;2023-04-29T05:18:49;101364.00;;;14.92;44.74
58245;BME280;44550;43.864;25.986;2023-04-29T05:22:53;101359.63;;;15.00;43.17
58245;BME280;44550;43.864;25.986;2023-04-29T05:26:55;101369.28;;;14.55;43.80
58245;BME280;44550;43.864;25.986;2023-04-29T05:31:01;101368.38;;;14.46;44.64
58245;BME280;44550;43.864;25.986;2023-04-29T05:35:05;101367.38;;;13.85;44.85
58245;BME280;44550;43.864;25.986;2023-04-29T05:39:14;101365.56;;;13.72;44.49
58245;BME280;44550;43.864;25.986;2023-04-29T05:43:16;101367.28;;;13.62;44.27
58245;BME280;44550;43.864;25.986;2023-04-29T05:47:25;101368.84;;;13.27;43.96
58245;BME280;44550;43.864;25.986;2023-04-29T05:51:33;101367.28;;;13.67;44.20
58245;BME280;44550;43.864;25.986;2023-04-29T05:55:38;101369.91;;;13.64;43.74
58245;BME280;44550;43.864;25.986;2023-04-29T05:59:44;101364.75;;;13.96;43.24
58245;BME280;44550;43.864;25.986;2023-04-29T06:03:49;101358.53;;;13.65;43.14
58245;BME280;44550;43.864;25.986;2023-04-29T06:07:55;101358.38;;;13.31;45.01
58245;BME280;44550;43.864;25.986;2023-04-29T06:11:59;101358.38;;;13.33;43.81
58245;BME280;44550;43.864;25.986;2023-04-29T06:16:13;101357.50;;;13.37;43.23
58245;BME280;44550;43.864;25.986;2023-04-29T06:20:13;101361.06;;;13.44;41.68
58245;BME280;44550;43.864;25.986;2023-04-29T06:24:19;101357.56;;;13.45;42.53
58245;BME280;44550;43.864;25.986;2023-04-29T06:28:20;101358.44;;;13.44;43.13
58245;BME280;44550;43.864;25.986;2023-04-29T06:32:20;101362.88;;;13.60;41.87
58245;BME280;44550;43.864;25.986;2023-04-29T06:36:21;101372.44;;;13.47;41.94
58245;BME280;44550;43.864;25.986;2023-04-29T06:40:24;101364.53;;;13.39;42.83
58245;BME280;44550;43.864;25.986;2023-04-29T06:44:26;101358.53;;;13.67;42.33
58245;BME280;44550;43.864;25.986;2023-04-29T06:48:27;101359.47;;;13.84;42.80
58245;BME280;44550;43.864;25.986;2023-04-29T06:52:32;101355.09;;;13.91;41.65
58245;BME280;44550;43.864;25.986;2023-04-29T07:00:56;101353.44;;;14.28;42.32
58245;BME280;44550;43.864;25.986;2023-04-29T07:04:58;101347.34;;;14.44;40.67
58245;BME280;44550;43.864;25.986;2023-04-29T07:08:59;101348.22;;;14.60;40.31
58245;BME280;44550;43.864;25.986;2023-04-29T07:13:02;101349.06;;;14.39;41.42
58245;BME280;44550;43.864;25.986;2023-04-29T07:17:06;101350.84;;;14.69;40.33
58245;BME280;44550;43.864;25.986;2023-04-29T07:21:13;101346.47;;;14.71;40.71
58245;BME280;44550;43.864;25.986;2023-04-29T07:25:26;101342.06;;;15.01;38.84
58245;BME280;44550;43.864;25.986;2023-04-29T07:29:27;101333.28;;;14.94;38.77
58245;BME280;44550;43.864;25.986;2023-04-29T07:33:35;101341.19;;;14.96;38.74
58245;BME280;44550;43.864;25.986;2023-04-29T07:37:37;101330.66;;;14.94;38.88
58245;BME280;44550;43.864;25.986;2023-04-29T07:41:47;101335.94;;;14.97;36.93
58245;BME280;44550;43.864;25.986;2023-04-29T07:45:56;101335.91;;;14.99;37.75
58245;BME280;44550;43.864;25.986;2023-04-29T07:50:02;101323.53;;;15.28;37.02
58245;BME280;44550;43.864;25.986;2023-04-29T07:54:03;101336.78;;;15.06;37.34
58245;BME280;44550;43.864;25.986;2023-04-29T07:58:05;101332.34;;;15.21;38.41
58245;BME280;44550;43.864;25.986;2023-04-29T08:02:11;101324.47;;;15.06;37.79
58245;BME280;44550;43.864;25.986;2023-04-29T08:06:16;101318.34;;;15.04;38.82
58245;BME280;44550;43.864;25.986;2023-04-29T08:10:18;101310.41;;;15.16;38.70
58245;BME280;44550;43.864;25.986;2023-04-29T08:14:24;101308.53;;;15.46;38.46
58245;BME280;44550;43.864;25.986;2023-04-29T08:18:25;101304.25;;;15.20;36.56
58245;BME280;44550;43.864;25.986;2023-04-29T08:27:01;101296.09;;;15.79;35.97
58245;BME280;44550;43.864;25.986;2023-04-29T08:36:08;101280.09;;;16.09;35.35
58245;BME280;44550;43.864;25.986;2023-04-29T08:40:46;101274.94;;;15.94;35.19
58245;BME280;44550;43.864;25.986;2023-04-29T11:28:44;101145.53;;;19.01;34.12
58245;BME280;44550;43.864;25.986;2023-04-29T11:33:34;101144.97;;;18.86;34.21
58245;BME280;44550;43.864;25.986;2023-04-29T14:51:44;100977.75;;;20.01;32.55
58245;BME280;44550;43.864;25.986;2023-04-29T14:55:48;100971.59;;;19.67;33.04
58245;BME280;44550;43.864;25.986;2023-04-29T14:59:48;100969.53;;;19.79;32.38
58245;BME280;44550;43.864;25.986;2023-04-29T15:03:53;100968.34;;;19.89;32.42
58245;BME280;44550;43.864;25.986;2023-04-29T15:08:01;100964.44;;;20.02;32.18
58245;BME280;44550;43.864;25.986;2023-04-29T15:12:08;100959.09;;;20.04;31.71
58245;BME280;44550;43.864;25.986;2023-04-29T15:16:18;100961.59;;;20.08;32.36
58245;BME280;44550;43.864;25.986;2023-04-29T15:20:24;100952.59;;;20.14;32.43
58245;BME280;44550;43.864;25.986;2023-04-29T15:24:34;100952.91;;;20.33;32.34
58245;BME280;44550;43.864;25.986;2023-04-29T15:28:35;100947.00;;;20.53;31.93
58245;BME280;44550;43.864;25.986;2023-04-29T15:32:36;100949.50;;;19.98;32.39
58245;BME280;44550;43.864;25.986;2023-04-29T15:36:37;100947.59;;;19.72;32.85
58245;BME280;44550;43.864;25.986;2023-04-29T15:40:53;100944.22;;;19.67;33.14
58245;BME280;44550;43.864;25.986;2023-04-29T15:45:02;100943.41;;;19.62;33.59
58245;BME280;44550;43.864;25.986;2023-04-29T15:49:09;100945.59;;;19.47;34.23
58245;BME280;44550;43.864;25.986;2023-04-29T15:53:18;100946.66;;;19.40;34.55
58245;BME280;44550;43.864;25.986;2023-04-29T15:57:24;100943.25;;;19.35;34.13
58245;BME280;44550;43.864;25.986;2023-04-29T16:01:26;100936.44;;;19.25;35.03
58245;BME280;44550;43.864;25.986;2023-04-29T16:05:31;100946.25;;;19.21;34.93
58245;BME280;44550;43.864;25.986;2023-04-29T16:09:47;100940.16;;;19.18;35.27
58245;BME280;44550;43.864;25.986;2023-04-29T16:18:20;100933.34;;;18.72;35.76
58245;BME280;44550;43.864;25.986;2023-04-29T16:22:25;100929.59;;;18.42;36.48
58245;BME280;44550;43.864;25.986;2023-04-29T16:26:30;100925.78;;;18.15;37.63
58245;BME280;44550;43.864;25.986;2023-04-29T16:30:33;100934.34;;;17.84;38.32
58245;BME280;44550;43.864;25.986;2023-04-29T16:34:37;100940.09;;;17.59;39.22
58245;BME280;44550;43.864;25.986;2023-04-29T16:38:41;100934.81;;;17.58;39.92
58245;BME280;44550;43.864;25.986;2023-04-29T16:42:43;100937.47;;;17.58;39.85
58245;BME280;44550;43.864;25.986;2023-04-29T16:46:57;100939.28;;;17.54;40.19
58245;BME280;44550;43.864;25.986;2023-04-29T16:51:17;100944.78;;;17.44;39.70
58245;BME280;44550;43.864;25.986;2023-04-29T16:55:20;100944.94;;;17.34;40.23
58245;BME280;44550;43.864;25.986;2023-04-29T16:59:27;100942.34;;;17.31;40.57
58245;BME280;44550;43.864;25.986;2023-04-29T17:03:30;100938.06;;;17.26;40.53
58245;BME280;44550;43.864;25.986;2023-04-29T17:07:36;100937.97;;;17.30;40.41
58245;BME280;44550;43.864;25.986;2023-04-29T17:11:37;100947.09;;;17.12;40.95
58245;BME280;44550;43.864;25.986;2023-04-29T17:15:40;100943.97;;;16.89;41.95
58245;BME280;44550;43.864;25.986;2023-04-29T17:20:04;100948.59;;;16.72;43.07
58245;BME280;44550;43.864;25.986;2023-04-29T17:24:26;100949.44;;;16.77;42.64
58245;BME280;44550;43.864;25.986;2023-04-29T17:28:27;100945.00;;;16.79;42.81
58245;BME280;44550;43.864;25.986;2023-04-29T17:32:29;100956.22;;;16.93;43.28
58245;BME280;44550;43.864;25.986;2023-04-29T17:36:38;100945.03;;;17.30;42.82
58245;BME280;44550;43.864;25.986;2023-04-29T17:40:41;100947.38;;;17.48;42.53
58245;BME280;44550;43.864;25.986;2023-04-29T17:44:42;100947.47;;;17.41;42.36
58245;BME280;44550;43.864;25.986;2023-04-29T17:48:49;100945.91;;;17.32;43.00
58245;BME280;44550;43.864;25.986;2023-04-29T17:52:51;100950.22;;;17.34;43.11
58245;BME280;44550;43.864;25.986;2023-04-29T17:57:05;100953.69;;;17.40;42.91
58245;BME280;44550;43.864;25.986;2023-04-29T18:01:08;100960.03;;;17.28;43.08
58245;BME280;44550;43.864;25.986;2023-04-29T18:05:15;100955.94;;;17.10;43.98
58245;BME280;44550;43.864;25.986;2023-04-29T18:09:22;100964.88;;;17.01;45.24
58245;BME280;44550;43.864;25.986;2023-04-29T18:13:33;100965.56;;;17.14;44.64
58245;BME280;44550;43.864;25.986;2023-04-29T18:17:42;100964.31;;;17.36;44.88
58245;BME280;44550;43.864;25.986;2023-04-29T18:21:46;100969.69;;;17.32;45.13
58245;BME280;44550;43.864;25.986;2023-04-29T18:25:53;100982.50;;;17.02;45.95
58245;BME280;44550;43.864;25.986;2023-04-29T18:29:56;100970.63;;;16.71;46.93
58245;BME280;44550;43.864;25.986;2023-04-29T18:34:08;100975.31;;;16.49;47.50
58245;BME280;44550;43.864;25.986;2023-04-29T18:38:15;100980.66;;;16.44;47.48
58245;BME280;44550;43.864;25.986;2023-04-29T18:42:22;100987.72;;;16.43;47.84
58245;BME280;44550;43.864;25.986;2023-04-29T18:46:27;100985.22;;;16.31;48.03
58245;BME280;44550;43.864;25.986;2023-04-29T18:50:35;100977.44;;;16.22;49.08
58245;BME280;44550;43.864;25.986;2023-04-29T18:54:38;100983.84;;;16.01;49.47
58245;BME280;44550;43.864;25.986;2023-04-29T18:58:49;100979.66;;;15.82;50.34
58245;BME280;44550;43.864;25.986;2023-04-29T19:02:53;100985.19;;;15.57;51.23
58245;BME280;44550;43.864;25.986;2023-04-29T19:06:53;100996.00;;;15.25;52.70
58245;BME280;44550;43.864;25.986;2023-04-29T19:10:54;100992.69;;;14.98;54.24
58245;BME280;44550;43.864;25.986;2023-04-29T19:15:00;100990.22;;;14.75;55.44
58245;BME280;44550;43.864;25.986;2023-04-29T19:19:04;100986.78;;;14.64;55.55
58245;BME280;44550;43.864;25.986;2023-04-29T19:23:07;100989.47;;;14.46;55.87
58245;BME280;44550;43.864;25.986;2023-04-29T19:27:07;100984.31;;;14.30;56.06
58245;BME280;44550;43.864;25.986;2023-04-29T19:31:08;100982.63;;;14.17;55.58
58245;BME280;44550;43.864;25.986;2023-04-29T19:35:13;100981.75;;;14.12;55.19
58245;BME280;44550;43.864;25.986;2023-04-29T19:39:20;100987.00;;;14.15;55.19
58245;BME280;44550;43.864;25.986;2023-04-29T19:43:26;100990.44;;;14.31;55.09
58245;BME280;44550;43.864;25.986;2023-04-29T19:47:30;100986.03;;;14.38;54.54
58245;BME280;44550;43.864;25.986;2023-04-29T19:51:33;100979.00;;;14.35;55.65
58245;BME280;44550;43.864;25.986;2023-04-29T19:55:41;100978.19;;;14.24;54.23
58245;BME280;44550;43.864;25.986;2023-04-29T19:59:56;100982.63;;;14.17;53.54
58245;BME280;44550;43.864;25.986;2023-04-29T20:04:01;100987.84;;;14.16;54.83
58245;BME280;44550;43.864;25.986;2023-04-29T20:08:07;100985.31;;;13.97;55.09
58245;BME280;44550;43.864;25.986;2023-04-29T20:12:15;100977.41;;;13.93;54.95
58245;BME280;44550;43.864;25.986;2023-04-29T20:16:22;100973.91;;;13.95;55.23
58245;BME280;44550;43.864;25.986;2023-04-29T20:20:42;100976.50;;;14.03;55.68
58245;BME280;44550;43.864;25.986;2023-04-29T20:24:49;100980.91;;;14.04;56.49
58245;BME280;44550;43.864;25.986;2023-04-29T20:29:00;100981.78;;;14.00;56.85
58245;BME280;44550;43.864;25.986;2023-04-29T20:33:06;100979.16;;;14.01;57.10
58245;BME280;44550;43.864;25.986;2023-04-29T20:37:14;100975.69;;;13.89;56.24
58245;BME280;44550;43.864;25.986;2023-04-29T20:41:27;100970.44;;;13.85;56.82
58245;BME280;44550;43.864;25.986;2023-04-29T20:45:35;100961.69;;;13.82;56.59
58245;BME280;44550;43.864;25.986;2023-04-29T20:49:47;100959.06;;;13.76;56.22
58245;BME280;44550;43.864;25.986;2023-04-29T20:54:12;100960.88;;;13.65;56.02
58245;BME280;44550;43.864;25.986;2023-04-29T20:58:41;100958.25;;;13.52;57.21
58245;BME280;44550;43.864;25.986;2023-04-29T21:03:06;100954.75;;;13.55;56.92
58245;BME280;44550;43.864;25.986;2023-04-29T21:07:17;100960.84;;;13.63;56.76
58245;BME280;44550;43.864;25.986;2023-04-29T21:11:38;100958.13;;;13.91;56.15
58245;BME280;44550;43.864;25.986;2023-04-29T21:21:05;100957.44;;;15.18;52.03
58245;BME280;44550;43.864;25.986;2023-04-29T21:25:12;100955.00;;;15.86;50.32
58245;BME280;44550;43.864;25.986;2023-04-29T21:29:40;100949.75;;;15.84;50.33
58245;BME280;44550;43.864;25.986;2023-04-29T21:33:58;100942.25;;;15.44;51.87
58245;BME280;44550;43.864;25.986;2023-04-29T21:38:33;100942.69;;;14.95;53.13
58245;BME280;44550;43.864;25.986;2023-04-29T21:43:06;100946.22;;;14.93;54.39
58245;BME280;44550;43.864;25.986;2023-04-29T21:47:28;100946.88;;;15.16;53.46
58245;BME280;44550;43.864;25.986;2023-04-29T21:51:47;100941.72;;;15.06;53.98
58245;BME280;44550;43.864;25.986;2023-04-29T21:56:11;100946.06;;;15.11;54.05
58245;BME280;44550;43.864;25.986;2023-04-29T22:00:45;100935.28;;;15.36;53.47
58245;BME280;44550;43.864;25.986;2023-04-29T22:04:56;100931.78;;;15.40;53.25
58245;BME280;44550;43.864;25.986;2023-04-29T22:09:10;100924.09;;;15.17;54.26
58245;BME280;44550;43.864;25.986;2023-04-29T22:13:21;100925.06;;;15.05;54.85
58245;BME280;44550;43.864;25.986;2023-04-29T22:17:27;100918.88;;;15.09;55.40
58245;BME280;44550;43.864;25.986;2023-04-29T22:21:31;100914.56;;;15.00;55.90
58245;BME280;44550;43.864;25.986;2023-04-29T22:25:35;100915.53;;;14.89;56.80
58245;BME280;44550;43.864;25.986;2023-04-29T22:29:43;100914.06;;;14.54;58.09
58245;BME280;44550;43.864;25.986;2023-04-29T22:33:50;100908.94;;;14.19;59.68
58245;BME280;44550;43.864;25.986;2023-04-29T22:37:54;100910.81;;;13.97;60.51
58245;BME280;44550;43.864;25.986;2023-04-29T22:41:57;100906.50;;;13.76;61.61
58245;BME280;44550;43.864;25.986;2023-04-29T22:46:02;100908.38;;;13.42;64.15
58245;BME280;44550;43.864;25.986;2023-04-29T22:50:15;100906.63;;;13.11;65.82
58245;BME280;44550;43.864;25.986;2023-04-29T22:54:21;100905.78;;;12.96;67.01
58245;BME280;44550;43.864;25.986;2023-04-29T22:58:24;100893.50;;;13.08;66.58
58245;BME280;44550;43.864;25.986;2023-04-29T23:02:27;100885.63;;;12.78;68.38
58245;BME280;44550;43.864;25.986;2023-04-29T23:06:28;100887.38;;;12.68;68.26
58245;BME280;44550;43.864;25.986;2023-04-29T23:10:30;100882.16;;;12.89;68.77
58245;BME280;44550;43.864;25.986;2023-04-29T23:14:30;100886.53;;;12.83;68.33
58245;BME280;44550;43.864;25.986;2023-04-29T23:18:33;100885.63;;;12.84;68.54
58245;BME280;44550;43.864;25.986;2023-04-29T23:22:33;100890.84;;;12.55;69.84
58245;BME280;44550;43.864;25.986;2023-04-29T23:26:34;100889.03;;;12.06;73.06
58245;BME280;44550;43.864;25.986;2023-04-29T23:30:38;100883.72;;;11.86;73.48
58245;BME280;44550;43.864;25.986;2023-04-29T23:34:43;100890.59;;;11.72;74.86
58245;BME280;44550;43.864;25.986;2023-04-29T23:38:47;100883.66;;;11.77;75.18
58245;BME280;44550;43.864;25.986;2023-04-29T23:42:47;100884.66;;;11.99;74.84
58245;BME280;44550;43.864;25.986;2023-04-29T23:46:48;100880.31;;;12.06;73.57
58245;BME280;44550;43.864;25.986;2023-04-29T23:50:50;100879.47;;;12.22;73.39
58245;BME280;44550;43.864;25.986;2023-04-29T23:54:50;100874.22;;;12.30;72.67
58245;BME280;44550;43.864;25.986;2023-04-29T23:58:54;100875.13;;;12.45;71.54
